Clover Valley, Nevada Weather observations

Data are for 10 minute period ending at time listed.
 Day   Time   Solar   Ave.   Ave.  Ave.  Vector  Max.   Baro.   Total    
  of    of     Rad.   Air    Rel.  Wind   Wind   Wind  Press.  Precip.   
Year   Day            Temp.  Hum.  Speed  Dir.   Gust                    
2014   (PST)  Kw/m2    F      %     mph   deg.    mph    mb.     in.     
-------------------------------------------------------------------------
 202    2:20   0.00   50.2    92    3.2   334     5.5   827.9    0.00 
 202    2:30   0.00   49.9    93    1.9     5     2.9   828.1    0.00 
 202    2:40   0.00   50.1    93    2.7     4     3.9   828.0    0.00 
 202    2:50   0.00   49.7    92    3.1    15     3.8   828.0    0.00 
 202    3:00   0.00   49.1    93    2.9    44     3.6   828.1    0.00 
 202    3:10   0.00   48.6    93    2.6    66     3.2   828.1    0.00 
 202    3:20   0.00   48.5    94    0.8    51     2.3   828.1    0.00 
 202    3:30   0.00   49.2    95    2.2   310     3.5   828.2    0.00 
 202    3:40   0.00   49.7    95    1.3   318     3.0   828.2    0.00 
 202    3:50   0.00   49.8    95    1.1   284     3.1   828.4    0.00 
 202    4:00   0.00   49.6    95    0.3   307     1.4   828.4    0.00 
 202    4:10   0.00   49.4    94    2.3   301     3.6   828.4    0.00 
 202    4:20   0.00   48.9    94    1.1   332     1.8   828.4    0.00 
 202    4:30   0.00   48.6    94    2.7   313     3.9   828.6    0.00 
 202    4:40   0.01   48.5    94    1.8   304     2.8   828.7    0.00 
 202    4:50   0.04   48.9    94    3.9   290     5.6   828.9    0.00 
 202    5:00   0.05   49.7    93    2.1   309     3.6   829.0    0.00 
 202    5:10   0.09   51.0    92    1.3   325     2.4   829.0    0.00 
 202    5:20   0.11   52.7    89    1.5   255     3.1   829.1    0.00 
 202    5:30   0.13   53.8    88    0.9   290     2.6   829.2    0.00 
 202    5:40   0.15   55.1    86    1.0   344     2.2   829.4    0.00 
 202    5:50   0.18   56.0    85    1.6    32     2.3   829.5    0.00 
 202    6:00   0.21   56.5    84    2.4    23     3.2   829.7    0.00 
 202    6:10   0.23   57.2    83    1.9   350     2.9   829.7    0.00 
 202    6:20   0.27   58.8    81    1.7   342     3.5   829.8    0.00 
 202    6:30   0.30   59.7    77    2.5   337     3.9   830.0    0.00 
 202    6:40   0.33   60.4    76    2.5   349     4.5   830.1    0.00 
 202    6:50   0.36   62.0    73    2.1    12     3.5   830.0    0.00 
 202    7:00   0.40   63.3    71    1.6     8     3.1   830.2    0.00 
 202    7:10   0.41   65.2    66    1.1    58     2.6   830.4    0.00 
 202    7:20   0.00   65.3    68    2.6   121     3.5   830.5    0.00 
 202    7:30   0.00   65.2    65    2.1   138     3.7   830.6    0.00 
 202    7:40   0.23   66.6    62    1.2   137     2.8   830.7    0.00 
 202    7:50   0.55   69.7    56    0.6   131     2.4   830.6    0.00 
 202    8:00   0.58   68.4    59    1.7   116     3.6   830.5    0.00 
 202    8:10   0.61   68.5    56    1.7    80     3.1   830.5    0.00 
 202    8:20   0.63   68.8    54    1.5   111     4.3   830.5    0.00 
 202    8:30   0.66   69.2    54    1.3   123     3.4   830.5    0.00 
 202    8:40   0.69   70.3    52    1.4    13     2.7   830.5    0.00 
 202    8:50   0.72   70.8    49    1.3   273     3.3   830.5    0.00 
 202    9:00   0.75   71.6    47    0.9   314     3.7   830.6    0.00 
 202    9:10   0.77   71.9    52    1.6    58     3.4   830.5    0.00 
 202    9:20   0.79   71.9    50    1.3    70     3.7   830.4    0.00 
 202    9:30   0.81   72.9    52    1.4    21     3.5   830.3    0.00 
 202    9:40   0.83   73.5    48    1.5   341     3.4   830.2    0.00 
 202    9:50   0.85   75.4    42    0.9   192     3.7   830.1    0.00 
 202   10:00   0.90   76.3    43    3.2   139    10.0   830.1    0.00 
 202   10:10   0.94   75.7    41    3.1   305     6.9   830.0    0.00 
 202   10:20   0.82   75.3    45    3.9    13     6.4   829.9    0.00 
 202   10:30   0.86   75.7    43    3.5   331     6.1   829.8    0.00 
 202   10:40   0.36   75.3    42    3.5   318     6.0   829.7    0.00 
 202   10:50   0.46   75.0    46    1.8   335     5.1   829.7    0.00 
 202   11:00   0.69   76.4    41    6.6   221    13.4   829.7    0.00 
 202   11:10   0.92   77.6    38    5.8   242    12.6   829.7    0.00 
 202   11:20   0.97   78.0    36    7.7   255    17.4   829.6    0.00 
 202   11:30   0.97   77.5    36    6.8   257    12.6   829.5    0.00 
 202   11:40   0.98   77.5    37    8.5   266    18.5   829.5    0.00 
 202   11:50   0.98   77.6    36    9.3   276    17.0   829.4    0.00 
 202   12:00   0.96   77.6    35    8.4   268    19.0   829.3    0.00 
 202   12:10   0.98   78.1    36    8.0   277    15.8   829.3    0.00 
 202   12:20   0.97   78.0    35   12.5   269    21.7   829.1    0.00 
 202   12:30   0.96   78.6    33    9.0   252    14.7   829.1    0.00 
 202   12:40   0.96   78.8    34   10.8   274    19.6   829.0    0.00 
 202   12:50   0.96   79.3    32    7.8   260    18.4   829.0    0.00 
 202   13:00   0.96   79.1    32    9.6   270    18.7   828.8    0.00 
 202   13:10   0.84   79.4    31    9.3   272    17.0   828.7    0.00 
 202   13:20   0.56   78.7    32    9.4   268    17.1   828.7    0.00 
 202   13:30   0.40   78.1    32    4.4   280     8.4   828.5    0.00 
 202   13:40   0.78   79.7    31    6.1   273    18.4   828.4    0.00 
 202   13:50   0.81   79.3    32    7.9   302    13.2   828.3    0.00 
 202   14:00   0.90   80.3    32    7.4   278    16.3   828.2    0.00 
 202   14:10   0.83   80.9    29    6.5   258    12.1   828.0    0.00 
 202   14:20   0.81   81.9    28    5.9   255    12.5   827.9    0.00 
 202   14:30   0.80   81.6    29    9.0   270    18.3   827.8    0.00 
 202   14:40   0.70   81.0    28    7.5   268    16.7   828.0    0.00 
 202   14:50   0.15   78.3    30   11.0   291    15.5   827.9    0.00 
 202   15:00   0.13   76.8    32    9.5   287    17.0   827.9    0.00 
 202   15:10   0.10   76.6    33    7.8   270    14.7   828.2    0.00 
 202   15:20   0.08   69.7    44   17.2   158    31.4   828.6    0.00 
 202   15:30   0.20   67.4    48   10.7   126    21.6   828.8    0.01 
 202   15:40   0.43   73.2    44    4.0    98     8.0   828.6    0.00 
 202   15:50   0.66   74.5    48    3.4   108     6.3   828.6    0.00 
 202   16:00   0.57   76.0    50    4.1    89     5.3   828.5    0.00 
 202   16:10   0.51   77.1    47    2.6    92     4.4   828.3    0.00 
 202   16:20   0.45   77.0    44    3.2   129     4.3   828.1    0.00 
 202   16:30   0.42   77.2    43    3.9   133     5.4   828.0    0.00 
 202   16:40   0.24   75.4    48    6.1   146     8.5   828.2    0.00 
 202   16:50   0.10   71.8    62    5.5   137     6.9   828.3    0.00 
 202   17:00   0.04   69.7    71    5.0   119     7.2   828.3    0.00 
 202   17:10   0.02   69.2    67    6.6   136    25.7   828.5    0.00 
 202   17:20   0.01   72.2    34   16.1   245    23.8   829.0    0.00 
 202   17:30   0.01   69.2    42   11.0   306    15.4   829.1    0.00 
 202   17:40   0.01   66.1    45    8.0     4    16.3   828.9    0.00 
 202   17:50   0.02   70.5    34    7.2   345    13.0   828.1    0.00 
 202   18:00   0.04   66.8    46    9.3   314    12.9   828.6    0.00 
 202   18:10   0.02   63.5    58    6.4   327    10.0   828.7    0.00 
 202   18:20   0.02   61.4    66    6.2   351     8.6   828.7    0.00 
 202   18:30   0.03   62.3    63    7.0   345     9.6   828.8    0.00 
 202   18:40   0.02   63.3    61    6.1     2     8.4   828.9    0.00 
 202   18:50   0.02   62.6    64    6.1    19     8.0   829.1    0.00 
 202   19:00   0.01   62.4    64    6.2     8    11.2   829.1    0.00 
 202   19:10   0.00   64.6    53    6.8     7    11.2   829.1    0.00 
 202   19:20   0.00   64.8    54    5.1     1     8.5   829.3    0.00 
 202   19:30   0.00   64.8    56    7.3     2    10.6   829.4    0.00 
 202   19:40   0.00   65.9    52    7.3     6    10.4   829.4    0.00 
 202   19:50   0.00   64.7    57    4.7   355     8.8   829.7    0.00 
 202   20:00   0.00   62.5    64    3.8   319     7.2   829.9    0.00 
 202   20:10   0.00   65.0    56    4.6   357     6.7   830.0    0.00 
 202   20:20   0.00   62.9    63    3.6   350     5.5   830.2    0.00 
 202   20:30   0.00   62.2    66    4.3   329     5.8   830.3    0.00 
 202   20:40   0.00   62.8    64    4.4   324     6.2   830.7    0.00 
 202   20:50   0.00   62.8    66    4.7   318     6.1   830.9    0.00 
 202   21:00   0.00   64.6    59    6.0    12     9.4   830.7    0.00 
 202   21:10   0.00   62.6    68    5.2    63     7.5   830.7    0.00 
 202   21:20   0.00   61.5    69    5.0    44     8.3   830.8    0.00 
 202   21:30   0.00   64.7    56    8.4     7    12.1   830.7    0.00 
 202   21:40   0.00   64.9    55    6.7    26    10.6   830.9    0.00 
 202   21:50   0.00   64.3    56    6.6    13     8.6   831.0    0.00 
 202   22:00   0.00   63.7    57    4.8    12     7.0   831.1    0.00 
 202   22:10   0.00   63.1    59    3.2   312     6.6   831.3    0.00 
 202   22:20   0.00   60.8    68    3.9   192     7.0   831.3    0.00 
 202   22:30   0.00   61.2    66    3.7   208     6.6   831.5    0.00 
 202   22:40   0.00   61.7    66    4.9   284     6.7   831.7    0.00 
 202   22:50   0.00   61.0    68    5.5   311     7.4   831.7    0.00 
 202   23:00   0.00   61.1    65    5.1   317     7.5   831.8    0.00 
 202   23:10   0.00   61.2    64    4.8   328     8.9   831.9    0.00 
 202   23:20   0.00   60.6    65    5.2   335     7.2   832.1    0.00 
 202   23:30   0.00   60.4    65    6.2   341    13.6   832.1    0.00 
 202   23:40   0.00   62.3    59   11.2     8    16.7   831.9    0.00 
 202   23:50   0.00   61.8    61   10.9    14    15.3   831.9    0.00 
 203    0:00   0.00   61.4    61   11.1    18    16.4   831.8    0.00 
 203    0:10   0.00   62.3    58   11.4    19    17.3   831.8    0.00 
 203    0:20   0.00   62.0    59   11.0    18    15.7   831.8    0.00 
 203    0:30   0.00   61.1    61   10.6    13    15.2   832.0    0.00 
 203    0:40   0.00   60.2    63    7.0    39    12.6   832.3    0.00 
 203    0:50   0.00   58.2    69    1.4   161     2.7   832.4    0.00 
 203    1:00   0.00   56.4    74    2.2   221     3.9   832.4    0.00 
 203    1:10   0.00   57.1    71    2.4   262     4.1   832.4    0.00 
 203    1:20   0.00   55.3    76    4.7   249     6.9   832.3    0.00 
 203    1:30   0.00   52.8    82    4.9   234     6.7   832.4    0.00 
 203    1:40   0.00   52.1    84    4.1   230     5.6   832.3    0.00 
 203    1:50   0.00   51.9    85    2.5   175     3.7   832.2    0.00 
 203    2:00   0.00   51.9    85    3.6   185     4.3   832.2    0.00 
 203    2:10   0.00   52.1    84    4.0   193     5.3   832.2    0.00 

Return to Clover Valley graphs page.


Western Regional Climate Center,wrcc@dri.edu